Terminal Aerodrome Forecast
Issued by NWS

Home | Current Version | Previous Version | Text Only | Print | Product List | Glossary On
Versions: 1 2 3 4 5 6 7 8 9 10 11 12
888
FTUS45 KVEF 112320
TAFVGT
TAF
KVGT 112320Z 1200/1224 VRB04KT P6SM FEW250
     FM120300 33005KT P6SM FEW250
     FM121600 VRB04KT P6SM FEW250=

USA.gov is the U.S. government's official web portal to all federal, state and local government web resources and services.